Bookmark and Share
Track history (hours):
 

San Matteo

Last reported at 2014-Apr-07 07:27 UTC. Time now 2014-Apr-19 17:06 UTC.
Position N 36°14' E 024°25'.
Warning: this ship's position is 12 days out of date.

Length 110 m; draft 4.8 m.

Type: Tanker. MMSI: 247103700.

NotesDate/timePositionNaut miles runAvg speedWind from/ knotsBaromVisibWave heightAir tempDewpointWater temp
2014-Apr-07 07:27N 36°14' E 024°25'1212.9
2014-Apr-07 06:33N 36°12' E 024°39'1313.2
2014-Apr-07 05:33N 36°10' E 024°56'1313.2
2014-Apr-07 04:33N 36°09' E 025°12'1313.2
2014-Apr-07 03:33N 36°09' E 025°28'1313.1
2014-Apr-07 02:34N 36°08' E 025°44'1313.1
2014-Apr-07 01:33N 36°08' E 026°00'1312.7
2014-Apr-07 00:33N 36°08' E 026°16'1312.5
2014-Apr-06 23:33N 36°07' E 026°32'  
2014-Apr-03 20:15N 35°49' E 028°12'912.8
2014-Apr-03 19:33N 35°48' E 028°01'1312.8
2014-Apr-03 18:33N 35°48' E 027°45'1412.4
2014-Apr-03 17:27N 35°53' E 027°30'1213.3
2014-Apr-03 16:33N 35°59' E 027°17'1413.5
2014-Apr-03 15:32N 36°02' E 027°00'1313.1
2014-Apr-03 14:33N 36°05' E 026°45'1313.1
2014-Apr-03 13:33N 36°07' E 026°29'1312.9
2014-Apr-03 12:33N 36°08' E 026°13'1312.8
2014-Apr-03 11:33N 36°08' E 025°57'1312.9
2014-Apr-03 10:33N 36°08' E 025°41'1312.9
2014-Apr-03 09:33N 36°08' E 025°25'1312.8
2014-Apr-03 08:33N 36°09' E 025°09'1312.8
2014-Apr-03 07:33N 36°09' E 024°54'1313.2
2014-Apr-03 06:33N 36°11' E 024°37'1313.5
2014-Apr-03 05:33N 36°12' E 024°21'1313.3
2014-Apr-03 04:33N 36°13' E 024°04'1313.1
2014-Apr-03 03:32N 36°14' E 023°48'1313.3
2014-Apr-03 02:33N 36°16' E 023°32'2912.8
2014-Apr-03 00:18N 36°24' E 022°58'  
2014-Mar-29 07:31N 37°26' E 024°00'1414.0
2014-Mar-29 06:33N 37°37' E 024°09'2113.9
2014-Mar-29 05:04N 37°52' E 024°28'2214.3
2014-Mar-29 03:33N 38°09' E 024°44'12513.9
2014-Mar-28 18:33N 40°00' E 025°57'  

Dump ship's entire track history

sailing weather and tide predictions

San Matteo — IBHW — position and weather